sensor_id;sensor_type;location;lat;lon;timestamp;P1;durP1;ratioP1;P2;durP2;ratioP2
57826;SDS011;43656;57.746;11.780;2023-03-01T00:00:10;4.95;;;2.70;;
57826;SDS011;43656;57.746;11.780;2023-03-01T00:02:36;4.13;;;2.78;;
57826;SDS011;43656;57.746;11.780;2023-03-01T00:05:03;6.57;;;2.90;;
57826;SDS011;43656;57.746;11.780;2023-03-01T00:07:29;3.38;;;2.60;;
57826;SDS011;43656;57.746;11.780;2023-03-01T00:09:54;4.65;;;2.58;;
57826;SDS011;43656;57.746;11.780;2023-03-01T00:12:20;4.97;;;2.58;;
57826;SDS011;43656;57.746;11.780;2023-03-01T00:14:46;6.18;;;3.03;;
57826;SDS011;43656;57.746;11.780;2023-03-01T00:17:12;4.03;;;2.88;;
57826;SDS011;43656;57.746;11.780;2023-03-01T00:19:39;3.85;;;2.50;;
57826;SDS011;43656;57.746;11.780;2023-03-01T00:22:04;6.63;;;3.38;;
57826;SDS011;43656;57.746;11.780;2023-03-01T00:24:30;4.43;;;2.30;;
57826;SDS011;43656;57.746;11.780;2023-03-01T00:26:56;4.47;;;2.70;;
57826;SDS011;43656;57.746;11.780;2023-03-01T00:29:23;4.13;;;2.22;;
57826;SDS011;43656;57.746;11.780;2023-03-01T00:31:49;5.57;;;2.40;;
57826;SDS011;43656;57.746;11.780;2023-03-01T00:34:15;4.72;;;3.05;;
57826;SDS011;43656;57.746;11.780;2023-03-01T00:36:40;5.40;;;3.13;;
57826;SDS011;43656;57.746;11.780;2023-03-01T00:39:09;3.65;;;2.88;;
57826;SDS011;43656;57.746;11.780;2023-03-01T00:41:36;2.80;;;2.10;;
57826;SDS011;43656;57.746;11.780;2023-03-01T00:44:02;3.88;;;2.40;;
57826;SDS011;43656;57.746;11.780;2023-03-01T00:46:28;3.85;;;2.38;;
57826;SDS011;43656;57.746;11.780;2023-03-01T00:48:55;5.47;;;2.80;;
57826;SDS011;43656;57.746;11.780;2023-03-01T00:51:22;3.78;;;2.00;;
57826;SDS011;43656;57.746;11.780;2023-03-01T00:53:50;3.00;;;2.13;;
57826;SDS011;43656;57.746;11.780;2023-03-01T00:56:16;3.63;;;2.17;;
57826;SDS011;43656;57.746;11.780;2023-03-01T00:58:42;4.35;;;2.80;;
57826;SDS011;43656;57.746;11.780;2023-03-01T01:01:17;7.82;;;3.00;;
57826;SDS011;43656;57.746;11.780;2023-03-01T01:06:41;5.43;;;3.65;;
57826;SDS011;43656;57.746;11.780;2023-03-01T01:09:10;4.45;;;3.10;;
57826;SDS011;43656;57.746;11.780;2023-03-01T01:11:42;7.38;;;4.35;;
57826;SDS011;43656;57.746;11.780;2023-03-01T01:14:12;7.97;;;4.25;;
57826;SDS011;43656;57.746;11.780;2023-03-01T01:16:38;6.10;;;3.05;;
57826;SDS011;43656;57.746;11.780;2023-03-01T01:19:04;5.70;;;3.35;;
57826;SDS011;43656;57.746;11.780;2023-03-01T01:21:30;5.47;;;3.03;;
57826;SDS011;43656;57.746;11.780;2023-03-01T01:23:56;6.13;;;3.90;;
57826;SDS011;43656;57.746;11.780;2023-03-01T01:26:23;5.85;;;4.25;;
57826;SDS011;43656;57.746;11.780;2023-03-01T01:28:50;7.65;;;5.60;;
57826;SDS011;43656;57.746;11.780;2023-03-01T01:31:16;6.30;;;3.63;;
57826;SDS011;43656;57.746;11.780;2023-03-01T01:33:42;4.93;;;3.42;;
57826;SDS011;43656;57.746;11.780;2023-03-01T01:36:08;5.22;;;3.75;;
57826;SDS011;43656;57.746;11.780;2023-03-01T01:38:34;5.78;;;3.35;;
57826;SDS011;43656;57.746;11.780;2023-03-01T01:41:01;10.35;;;3.70;;
57826;SDS011;43656;57.746;11.780;2023-03-01T01:43:28;5.85;;;4.10;;
57826;SDS011;43656;57.746;11.780;2023-03-01T01:49:17;7.43;;;4.05;;
57826;SDS011;43656;57.746;11.780;2023-03-01T01:52:02;10.52;;;4.45;;
57826;SDS011;43656;57.746;11.780;2023-03-01T01:57:42;7.45;;;4.85;;
57826;SDS011;43656;57.746;11.780;2023-03-01T02:00:11;8.15;;;4.72;;
57826;SDS011;43656;57.746;11.780;2023-03-01T02:02:43;7.18;;;4.57;;
57826;SDS011;43656;57.746;11.780;2023-03-01T02:07:51;6.55;;;4.90;;
57826;SDS011;43656;57.746;11.780;2023-03-01T02:10:17;9.32;;;4.85;;
57826;SDS011;43656;57.746;11.780;2023-03-01T02:12:42;10.27;;;5.15;;
57826;SDS011;43656;57.746;11.780;2023-03-01T02:15:09;7.72;;;4.53;;
57826;SDS011;43656;57.746;11.780;2023-03-01T02:17:34;7.47;;;5.00;;
57826;SDS011;43656;57.746;11.780;2023-03-01T02:20:18;6.78;;;4.43;;
57826;SDS011;43656;57.746;11.780;2023-03-01T02:22:51;7.38;;;5.03;;
57826;SDS011;43656;57.746;11.780;2023-03-01T02:30:33;7.18;;;4.75;;
57826;SDS011;43656;57.746;11.780;2023-03-01T02:32:59;5.53;;;4.20;;
57826;SDS011;43656;57.746;11.780;2023-03-01T02:35:33;7.55;;;3.70;;
57826;SDS011;43656;57.746;11.780;2023-03-01T02:38:02;6.85;;;3.97;;
57826;SDS011;43656;57.746;11.780;2023-03-01T02:40:31;6.88;;;3.88;;
57826;SDS011;43656;57.746;11.780;2023-03-01T02:42:59;6.13;;;4.22;;
57826;SDS011;43656;57.746;11.780;2023-03-01T02:45:25;5.90;;;4.05;;
57826;SDS011;43656;57.746;11.780;2023-03-01T02:47:55;6.80;;;4.10;;
57826;SDS011;43656;57.746;11.780;2023-03-01T02:52:55;6.80;;;3.40;;
57826;SDS011;43656;57.746;11.780;2023-03-01T02:55:29;4.93;;;3.15;;
57826;SDS011;43656;57.746;11.780;2023-03-01T02:57:55;7.18;;;4.00;;
57826;SDS011;43656;57.746;11.780;2023-03-01T03:00:23;6.88;;;3.70;;
57826;SDS011;43656;57.746;11.780;2023-03-01T03:02:54;7.97;;;4.20;;
57826;SDS011;43656;57.746;11.780;2023-03-01T03:05:28;8.07;;;5.28;;
57826;SDS011;43656;57.746;11.780;2023-03-01T03:07:55;5.97;;;3.92;;
57826;SDS011;43656;57.746;11.780;2023-03-01T03:10:28;5.10;;;3.30;;
57826;SDS011;43656;57.746;11.780;2023-03-01T03:13:00;5.05;;;3.03;;
57826;SDS011;43656;57.746;11.780;2023-03-01T03:15:28;6.05;;;3.80;;
57826;SDS011;43656;57.746;11.780;2023-03-01T03:17:54;6.85;;;3.53;;
57826;SDS011;43656;57.746;11.780;2023-03-01T03:20:22;5.00;;;3.67;;
57826;SDS011;43656;57.746;11.780;2023-03-01T03:22:50;8.57;;;3.45;;
57826;SDS011;43656;57.746;11.780;2023-03-01T03:25:18;8.25;;;4.35;;
57826;SDS011;43656;57.746;11.780;2023-03-01T03:27:45;6.63;;;4.03;;
57826;SDS011;43656;57.746;11.780;2023-03-01T03:30:12;7.32;;;4.95;;
57826;SDS011;43656;57.746;11.780;2023-03-01T03:32:40;11.27;;;5.00;;
57826;SDS011;43656;57.746;11.780;2023-03-01T03:35:17;7.30;;;4.25;;
57826;SDS011;43656;57.746;11.780;2023-03-01T03:37:47;7.32;;;3.90;;
57826;SDS011;43656;57.746;11.780;2023-03-01T03:40:29;8.73;;;5.18;;
57826;SDS011;43656;57.746;11.780;2023-03-01T03:43:12;6.05;;;3.90;;
57826;SDS011;43656;57.746;11.780;2023-03-01T03:45:40;6.78;;;4.07;;
57826;SDS011;43656;57.746;11.780;2023-03-01T03:48:07;7.65;;;4.60;;
57826;SDS011;43656;57.746;11.780;2023-03-01T03:50:34;7.00;;;4.07;;
57826;SDS011;43656;57.746;11.780;2023-03-01T03:53:01;6.57;;;3.70;;
57826;SDS011;43656;57.746;11.780;2023-03-01T03:55:28;8.80;;;3.90;;
57826;SDS011;43656;57.746;11.780;2023-03-01T03:57:56;7.85;;;5.00;;
57826;SDS011;43656;57.746;11.780;2023-03-01T04:00:23;8.05;;;4.50;;
57826;SDS011;43656;57.746;11.780;2023-03-01T04:02:49;7.72;;;4.40;;
57826;SDS011;43656;57.746;11.780;2023-03-01T04:05:16;7.95;;;4.78;;
57826;SDS011;43656;57.746;11.780;2023-03-01T04:07:43;7.75;;;5.35;;
57826;SDS011;43656;57.746;11.780;2023-03-01T04:10:10;12.90;;;8.00;;
57826;SDS011;43656;57.746;11.780;2023-03-01T04:12:38;7.05;;;4.88;;
57826;SDS011;43656;57.746;11.780;2023-03-01T04:15:04;7.50;;;4.97;;
57826;SDS011;43656;57.746;11.780;2023-03-01T04:17:41;8.20;;;6.25;;
57826;SDS011;43656;57.746;11.780;2023-03-01T04:20:08;11.80;;;7.28;;
57826;SDS011;43656;57.746;11.780;2023-03-01T04:22:39;8.65;;;6.55;;
57826;SDS011;43656;57.746;11.780;2023-03-01T04:25:05;9.27;;;5.90;;
57826;SDS011;43656;57.746;11.780;2023-03-01T04:27:35;9.40;;;6.63;;
57826;SDS011;43656;57.746;11.780;2023-03-01T04:30:02;9.18;;;6.70;;
57826;SDS011;43656;57.746;11.780;2023-03-01T04:32:28;8.90;;;7.00;;
57826;SDS011;43656;57.746;11.780;2023-03-01T04:35:00;12.50;;;8.30;;
57826;SDS011;43656;57.746;11.780;2023-03-01T04:37:25;11.13;;;7.70;;
57826;SDS011;43656;57.746;11.780;2023-03-01T04:39:52;11.80;;;6.50;;
57826;SDS011;43656;57.746;11.780;2023-03-01T04:42:18;9.20;;;6.97;;
57826;SDS011;43656;57.746;11.780;2023-03-01T04:44:43;7.38;;;5.80;;
57826;SDS011;43656;57.746;11.780;2023-03-01T04:47:09;8.10;;;5.75;;
57826;SDS011;43656;57.746;11.780;2023-03-01T04:49:35;7.22;;;5.32;;
57826;SDS011;43656;57.746;11.780;2023-03-01T04:52:00;7.03;;;4.68;;
57826;SDS011;43656;57.746;11.780;2023-03-01T04:54:32;8.13;;;5.28;;
57826;SDS011;43656;57.746;11.780;2023-03-01T04:56:59;6.25;;;4.55;;
57826;SDS011;43656;57.746;11.780;2023-03-01T04:59:26;8.52;;;4.72;;
57826;SDS011;43656;57.746;11.780;2023-03-01T05:01:53;9.07;;;5.05;;
57826;SDS011;43656;57.746;11.780;2023-03-01T05:04:23;5.35;;;4.07;;
57826;SDS011;43656;57.746;11.780;2023-03-01T05:06:49;5.07;;;3.70;;
57826;SDS011;43656;57.746;11.780;2023-03-01T05:09:14;5.40;;;3.47;;
57826;SDS011;43656;57.746;11.780;2023-03-01T05:11:40;6.25;;;2.42;;
57826;SDS011;43656;57.746;11.780;2023-03-01T05:14:06;4.22;;;2.63;;
57826;SDS011;43656;57.746;11.780;2023-03-01T05:16:33;5.28;;;2.47;;
57826;SDS011;43656;57.746;11.780;2023-03-01T05:18:59;4.57;;;2.55;;
57826;SDS011;43656;57.746;11.780;2023-03-01T05:21:24;5.40;;;2.20;;
57826;SDS011;43656;57.746;11.780;2023-03-01T05:23:50;3.70;;;2.15;;
57826;SDS011;43656;57.746;11.780;2023-03-01T05:26:16;3.15;;;2.47;;
57826;SDS011;43656;57.746;11.780;2023-03-01T05:28:43;3.90;;;2.03;;
57826;SDS011;43656;57.746;11.780;2023-03-01T05:31:09;3.35;;;2.30;;
57826;SDS011;43656;57.746;11.780;2023-03-01T05:33:38;2.97;;;2.08;;
57826;SDS011;43656;57.746;11.780;2023-03-01T05:36:06;2.55;;;1.75;;
57826;SDS011;43656;57.746;11.780;2023-03-01T05:38:33;3.72;;;2.08;;
57826;SDS011;43656;57.746;11.780;2023-03-01T05:40:59;3.33;;;1.98;;
57826;SDS011;43656;57.746;11.780;2023-03-01T05:43:25;4.05;;;2.28;;
57826;SDS011;43656;57.746;11.780;2023-03-01T05:45:50;3.05;;;1.95;;
57826;SDS011;43656;57.746;11.780;2023-03-01T05:48:16;5.20;;;3.03;;
57826;SDS011;43656;57.746;11.780;2023-03-01T05:50:44;4.95;;;3.38;;
57826;SDS011;43656;57.746;11.780;2023-03-01T05:53:19;3.45;;;2.92;;
57826;SDS011;43656;57.746;11.780;2023-03-01T05:55:46;5.97;;;3.78;;
57826;SDS011;43656;57.746;11.780;2023-03-01T05:58:17;4.28;;;3.17;;
57826;SDS011;43656;57.746;11.780;2023-03-01T06:00:45;8.80;;;3.92;;
57826;SDS011;43656;57.746;11.780;2023-03-01T06:03:13;5.13;;;4.13;;
57826;SDS011;43656;57.746;11.780;2023-03-01T06:05:40;6.13;;;4.18;;
57826;SDS011;43656;57.746;11.780;2023-03-01T06:08:06;4.45;;;3.90;;
57826;SDS011;43656;57.746;11.780;2023-03-01T06:10:32;4.82;;;3.97;;
57826;SDS011;43656;57.746;11.780;2023-03-01T06:12:58;5.63;;;3.63;;
57826;SDS011;43656;57.746;11.780;2023-03-01T06:15:23;5.97;;;3.83;;
57826;SDS011;43656;57.746;11.780;2023-03-01T06:17:50;4.82;;;3.90;;
57826;SDS011;43656;57.746;11.780;2023-03-01T06:22:42;4.60;;;3.67;;
57826;SDS011;43656;57.746;11.780;2023-03-01T06:25:08;6.53;;;3.55;;
57826;SDS011;43656;57.746;11.780;2023-03-01T06:27:35;4.72;;;3.28;;
57826;SDS011;43656;57.746;11.780;2023-03-01T06:30:01;5.75;;;3.88;;
57826;SDS011;43656;57.746;11.780;2023-03-01T06:32:27;8.52;;;3.90;;
57826;SDS011;43656;57.746;11.780;2023-03-01T06:34:52;4.38;;;3.38;;
57826;SDS011;43656;57.746;11.780;2023-03-01T06:37:17;6.50;;;3.92;;
57826;SDS011;43656;57.746;11.780;2023-03-01T06:39:43;5.15;;;3.17;;
57826;SDS011;43656;57.746;11.780;2023-03-01T06:42:08;3.72;;;2.85;;
57826;SDS011;43656;57.746;11.780;2023-03-01T06:44:37;5.53;;;2.63;;
57826;SDS011;43656;57.746;11.780;2023-03-01T06:47:03;2.50;;;1.90;;
57826;SDS011;43656;57.746;11.780;2023-03-01T06:49:29;5.38;;;2.65;;
57826;SDS011;43656;57.746;11.780;2023-03-01T06:51:55;4.43;;;2.47;;
57826;SDS011;43656;57.746;11.780;2023-03-01T06:54:20;4.97;;;2.60;;
57826;SDS011;43656;57.746;11.780;2023-03-01T06:56:47;2.72;;;2.10;;
57826;SDS011;43656;57.746;11.780;2023-03-01T06:59:13;2.55;;;1.92;;
57826;SDS011;43656;57.746;11.780;2023-03-01T07:01:39;4.93;;;2.45;;
57826;SDS011;43656;57.746;11.780;2023-03-01T07:04:04;3.25;;;2.30;;
57826;SDS011;43656;57.746;11.780;2023-03-01T07:06:29;4.95;;;2.45;;
57826;SDS011;43656;57.746;11.780;2023-03-01T07:08:55;3.85;;;2.63;;
57826;SDS011;43656;57.746;11.780;2023-03-01T07:11:20;4.15;;;2.30;;
57826;SDS011;43656;57.746;11.780;2023-03-01T07:13:46;4.65;;;2.17;;
57826;SDS011;43656;57.746;11.780;2023-03-01T07:16:11;3.20;;;2.22;;
57826;SDS011;43656;57.746;11.780;2023-03-01T07:18:37;5.72;;;2.55;;
57826;SDS011;43656;57.746;11.780;2023-03-01T07:21:09;5.38;;;2.40;;
57826;SDS011;43656;57.746;11.780;2023-03-01T07:23:37;3.40;;;2.00;;
57826;SDS011;43656;57.746;11.780;2023-03-01T07:26:02;3.95;;;2.13;;
57826;SDS011;43656;57.746;11.780;2023-03-01T07:28:28;4.65;;;2.25;;
57826;SDS011;43656;57.746;11.780;2023-03-01T07:30:54;2.80;;;2.20;;
57826;SDS011;43656;57.746;11.780;2023-03-01T07:33:20;3.47;;;2.30;;
57826;SDS011;43656;57.746;11.780;2023-03-01T07:35:45;3.75;;;2.08;;
57826;SDS011;43656;57.746;11.780;2023-03-01T07:38:12;4.18;;;2.17;;
57826;SDS011;43656;57.746;11.780;2023-03-01T07:40:37;2.38;;;1.50;;
57826;SDS011;43656;57.746;11.780;2023-03-01T07:43:03;2.78;;;1.60;;
57826;SDS011;43656;57.746;11.780;2023-03-01T07:45:28;3.00;;;1.58;;
57826;SDS011;43656;57.746;11.780;2023-03-01T07:47:54;3.88;;;1.70;;
57826;SDS011;43656;57.746;11.780;2023-03-01T07:50:20;6.10;;;1.83;;
57826;SDS011;43656;57.746;11.780;2023-03-01T07:52:47;2.55;;;1.50;;
57826;SDS011;43656;57.746;11.780;2023-03-01T07:55:14;3.50;;;1.40;;
57826;SDS011;43656;57.746;11.780;2023-03-01T07:57:40;3.35;;;1.70;;
57826;SDS011;43656;57.746;11.780;2023-03-01T08:00:06;3.38;;;1.48;;
57826;SDS011;43656;57.746;11.780;2023-03-01T08:02:33;3.95;;;1.70;;
57826;SDS011;43656;57.746;11.780;2023-03-01T08:04:58;3.92;;;1.60;;
57826;SDS011;43656;57.746;11.780;2023-03-01T08:07:23;3.38;;;1.73;;
57826;SDS011;43656;57.746;11.780;2023-03-01T08:09:49;2.88;;;1.80;;
57826;SDS011;43656;57.746;11.780;2023-03-01T08:12:14;3.22;;;1.65;;
57826;SDS011;43656;57.746;11.780;2023-03-01T08:14:41;5.15;;;1.83;;
57826;SDS011;43656;57.746;11.780;2023-03-01T08:17:07;3.78;;;1.50;;
57826;SDS011;43656;57.746;11.780;2023-03-01T08:19:33;2.47;;;1.67;;
57826;SDS011;43656;57.746;11.780;2023-03-01T08:22:00;2.88;;;1.25;;
57826;SDS011;43656;57.746;11.780;2023-03-01T08:24:27;2.47;;;1.17;;
57826;SDS011;43656;57.746;11.780;2023-03-01T08:26:54;5.00;;;1.40;;
57826;SDS011;43656;57.746;11.780;2023-03-01T08:29:20;1.80;;;1.35;;
57826;SDS011;43656;57.746;11.780;2023-03-01T08:31:46;3.17;;;1.30;;
57826;SDS011;43656;57.746;11.780;2023-03-01T08:34:13;2.75;;;1.20;;
57826;SDS011;43656;57.746;11.780;2023-03-01T08:36:42;2.10;;;1.20;;
57826;SDS011;43656;57.746;11.780;2023-03-01T08:39:10;2.30;;;1.20;;
57826;SDS011;43656;57.746;11.780;2023-03-01T08:41:37;1.92;;;1.00;;
57826;SDS011;43656;57.746;11.780;2023-03-01T08:44:04;1.63;;;0.90;;
57826;SDS011;43656;57.746;11.780;2023-03-01T08:46:31;1.67;;;0.90;;
57826;SDS011;43656;57.746;11.780;2023-03-01T08:48:58;2.30;;;1.05;;
57826;SDS011;43656;57.746;11.780;2023-03-01T08:51:24;2.90;;;1.00;;
57826;SDS011;43656;57.746;11.780;2023-03-01T08:53:50;3.22;;;0.90;;
57826;SDS011;43656;57.746;11.780;2023-03-01T08:56:17;1.33;;;0.82;;
57826;SDS011;43656;57.746;11.780;2023-03-01T08:58:46;2.03;;;0.90;;
57826;SDS011;43656;57.746;11.780;2023-03-01T09:01:14;1.77;;;0.90;;
57826;SDS011;43656;57.746;11.780;2023-03-01T09:03:41;1.58;;;0.88;;
57826;SDS011;43656;57.746;11.780;2023-03-01T09:06:08;1.73;;;0.93;;
57826;SDS011;43656;57.746;11.780;2023-03-01T09:08:35;2.70;;;1.35;;
57826;SDS011;43656;57.746;11.780;2023-03-01T09:11:06;2.00;;;0.82;;
57826;SDS011;43656;57.746;11.780;2023-03-01T09:13:32;1.83;;;0.80;;
57826;SDS011;43656;57.746;11.780;2023-03-01T09:15:59;1.45;;;0.70;;
57826;SDS011;43656;57.746;11.780;2023-03-01T09:18:27;1.45;;;0.68;;
57826;SDS011;43656;57.746;11.780;2023-03-01T09:20:52;2.63;;;0.90;;
57826;SDS011;43656;57.746;11.780;2023-03-01T09:23:20;3.15;;;0.80;;
57826;SDS011;43656;57.746;11.780;2023-03-01T09:25:46;1.50;;;0.80;;
57826;SDS011;43656;57.746;11.780;2023-03-01T09:28:11;3.67;;;0.70;;
57826;SDS011;43656;57.746;11.780;2023-03-01T09:30:37;0.98;;;0.47;;
57826;SDS011;43656;57.746;11.780;2023-03-01T09:33:02;1.45;;;0.60;;
57826;SDS011;43656;57.746;11.780;2023-03-01T09:35:28;1.17;;;0.70;;
57826;SDS011;43656;57.746;11.780;2023-03-01T09:37:53;2.70;;;0.60;;
57826;SDS011;43656;57.746;11.780;2023-03-01T09:40:20;1.02;;;0.43;;
57826;SDS011;43656;57.746;11.780;2023-03-01T09:42:51;3.42;;;0.70;;
57826;SDS011;43656;57.746;11.780;2023-03-01T09:47:52;1.02;;;0.50;;
57826;SDS011;43656;57.746;11.780;2023-03-01T09:50:19;1.02;;;0.50;;
57826;SDS011;43656;57.746;11.780;2023-03-01T09:52:46;1.30;;;0.50;;
57826;SDS011;43656;57.746;11.780;2023-03-01T09:55:38;1.55;;;0.55;;
57826;SDS011;43656;57.746;11.780;2023-03-01T10:07:29;0.90;;;0.50;;
57826;SDS011;43656;57.746;11.780;2023-03-01T10:09:59;1.93;;;0.50;;
57826;SDS011;43656;57.746;11.780;2023-03-01T10:12:32;1.70;;;0.50;;
57826;SDS011;43656;57.746;11.780;2023-03-01T10:15:05;1.10;;;0.35;;
57826;SDS011;43656;57.746;11.780;2023-03-01T10:17:45;1.02;;;0.40;;
57826;SDS011;43656;57.746;11.780;2023-03-01T10:22:41;1.40;;;0.40;;
57826;SDS011;43656;57.746;11.780;2023-03-01T10:25:08;2.15;;;0.68;;
57826;SDS011;43656;57.746;11.780;2023-03-01T10:27:47;1.23;;;0.45;;
57826;SDS011;43656;57.746;11.780;2023-03-01T10:32:48;0.80;;;0.40;;
57826;SDS011;43656;57.746;11.780;2023-03-01T10:35:19;3.42;;;0.60;;
57826;SDS011;43656;57.746;11.780;2023-03-01T10:37:56;1.20;;;0.45;;
57826;SDS011;43656;57.746;11.780;2023-03-01T10:40:22;1.02;;;0.40;;
57826;SDS011;43656;57.746;11.780;2023-03-01T10:42:48;1.85;;;0.70;;
57826;SDS011;43656;57.746;11.780;2023-03-01T10:47:57;1.95;;;0.30;;
57826;SDS011;43656;57.746;11.780;2023-03-01T10:50:48;1.98;;;0.40;;
57826;SDS011;43656;57.746;11.780;2023-03-01T10:53:25;1.25;;;0.40;;
57826;SDS011;43656;57.746;11.780;2023-03-01T10:56:01;1.75;;;0.40;;
57826;SDS011;43656;57.746;11.780;2023-03-01T10:58:33;0.93;;;0.40;;
57826;SDS011;43656;57.746;11.780;2023-03-01T11:03:33;2.08;;;0.30;;
57826;SDS011;43656;57.746;11.780;2023-03-01T11:06:03;1.00;;;0.30;;
57826;SDS011;43656;57.746;11.780;2023-03-01T11:11:49;1.25;;;0.25;;
57826;SDS011;43656;57.746;11.780;2023-03-01T11:14:00;2.35;;;0.70;;
57826;SDS011;43656;57.746;11.780;2023-03-01T11:21:34;2.08;;;0.50;;
57826;SDS011;43656;57.746;11.780;2023-03-01T11:24:04;3.67;;;0.73;;
57826;SDS011;43656;57.746;11.780;2023-03-01T11:26:36;2.00;;;0.60;;
57826;SDS011;43656;57.746;11.780;2023-03-01T11:29:06;2.08;;;0.80;;
57826;SDS011;43656;57.746;11.780;2023-03-01T11:31:41;1.13;;;0.60;;
57826;SDS011;43656;57.746;11.780;2023-03-01T11:34:11;1.58;;;0.63;;
57826;SDS011;43656;57.746;11.780;2023-03-01T11:41:49;1.92;;;0.65;;
57826;SDS011;43656;57.746;11.780;2023-03-01T11:44:26;1.35;;;0.50;;
57826;SDS011;43656;57.746;11.780;2023-03-01T11:49:36;1.70;;;0.52;;
57826;SDS011;43656;57.746;11.780;2023-03-01T12:08:46;1.70;;;0.80;;
57826;SDS011;43656;57.746;11.780;2023-03-01T12:11:36;3.60;;;0.55;;
57826;SDS011;43656;57.746;11.780;2023-03-01T12:14:17;5.53;;;0.60;;
57826;SDS011;43656;57.746;11.780;2023-03-01T12:17:08;2.20;;;0.52;;
57826;SDS011;43656;57.746;11.780;2023-03-01T12:33:54;1.52;;;0.38;;
57826;SDS011;43656;57.746;11.780;2023-03-01T12:49:55;1.55;;;0.47;;
57826;SDS011;43656;57.746;11.780;2023-03-01T12:55:36;1.10;;;0.28;;
57826;SDS011;43656;57.746;11.780;2023-03-01T13:20:20;1.15;;;0.47;;
57826;SDS011;43656;57.746;11.780;2023-03-01T13:23:00;1.60;;;0.30;;
57826;SDS011;43656;57.746;11.780;2023-03-01T13:25:29;1.42;;;0.32;;
57826;SDS011;43656;57.746;11.780;2023-03-01T13:30:59;2.60;;;0.82;;
57826;SDS011;43656;57.746;11.780;2023-03-01T13:35:50;1.05;;;0.43;;
57826;SDS011;43656;57.746;11.780;2023-03-01T13:39:00;1.10;;;0.35;;
57826;SDS011;43656;57.746;11.780;2023-03-01T13:41:08;3.35;;;0.57;;
57826;SDS011;43656;57.746;11.780;2023-03-01T13:43:35;4.13;;;0.40;;
57826;SDS011;43656;57.746;11.780;2023-03-01T13:46:07;1.17;;;0.30;;
57826;SDS011;43656;57.746;11.780;2023-03-01T13:48:45;1.90;;;0.50;;
57826;SDS011;43656;57.746;11.780;2023-03-01T13:51:16;2.25;;;0.40;;
57826;SDS011;43656;57.746;11.780;2023-03-01T13:53:49;3.95;;;0.70;;
57826;SDS011;43656;57.746;11.780;2023-03-01T13:56:15;4.70;;;0.65;;
57826;SDS011;43656;57.746;11.780;2023-03-01T13:58:49;2.53;;;0.50;;
57826;SDS011;43656;57.746;11.780;2023-03-01T14:03:45;3.15;;;0.65;;
57826;SDS011;43656;57.746;11.780;2023-03-01T14:06:24;2.97;;;0.57;;
57826;SDS011;43656;57.746;11.780;2023-03-01T14:08:52;3.53;;;0.65;;
57826;SDS011;43656;57.746;11.780;2023-03-01T14:19:47;3.70;;;0.50;;
57826;SDS011;43656;57.746;11.780;2023-03-01T14:25:01;1.45;;;0.30;;
57826;SDS011;43656;57.746;11.780;2023-03-01T14:27:32;2.58;;;0.47;;
57826;SDS011;43656;57.746;11.780;2023-03-01T14:30:10;2.38;;;0.70;;
57826;SDS011;43656;57.746;11.780;2023-03-01T14:32:37;3.63;;;0.55;;
57826;SDS011;43656;57.746;11.780;2023-03-01T14:35:18;5.50;;;0.80;;
57826;SDS011;43656;57.746;11.780;2023-03-01T14:37:49;3.65;;;0.80;;
57826;SDS011;43656;57.746;11.780;2023-03-01T14:40:22;4.28;;;0.63;;
57826;SDS011;43656;57.746;11.780;2023-03-01T14:42:50;2.75;;;0.60;;
57826;SDS011;43656;57.746;11.780;2023-03-01T14:45:17;5.45;;;0.80;;
57826;SDS011;43656;57.746;11.780;2023-03-01T14:47:43;4.18;;;0.52;;
57826;SDS011;43656;57.746;11.780;2023-03-01T14:50:25;2.15;;;0.60;;
57826;SDS011;43656;57.746;11.780;2023-03-01T14:52:54;4.00;;;0.70;;
57826;SDS011;43656;57.746;11.780;2023-03-01T14:55:37;9.15;;;0.70;;
57826;SDS011;43656;57.746;11.780;2023-03-01T14:58:12;3.92;;;0.73;;
57826;SDS011;43656;57.746;11.780;2023-03-01T15:00:39;2.75;;;0.60;;
57826;SDS011;43656;57.746;11.780;2023-03-01T15:03:22;1.33;;;0.52;;
57826;SDS011;43656;57.746;11.780;2023-03-01T15:05:50;1.45;;;0.50;;
57826;SDS011;43656;57.746;11.780;2023-03-01T15:08:18;2.47;;;0.40;;
57826;SDS011;43656;57.746;11.780;2023-03-01T15:11:32;3.10;;;0.60;;
57826;SDS011;43656;57.746;11.780;2023-03-01T15:13:55;1.65;;;0.57;;
57826;SDS011;43656;57.746;11.780;2023-03-01T15:16:30;3.97;;;0.60;;
57826;SDS011;43656;57.746;11.780;2023-03-01T15:18:58;2.08;;;0.65;;
57826;SDS011;43656;57.746;11.780;2023-03-01T15:21:33;1.15;;;0.55;;
57826;SDS011;43656;57.746;11.780;2023-03-01T15:27:13;1.77;;;0.52;;
57826;SDS011;43656;57.746;11.780;2023-03-01T15:29:39;3.60;;;0.50;;
57826;SDS011;43656;57.746;11.780;2023-03-01T15:32:06;0.75;;;0.32;;
57826;SDS011;43656;57.746;11.780;2023-03-01T15:40:57;2.33;;;0.40;;
57826;SDS011;43656;57.746;11.780;2023-03-01T15:46:03;1.35;;;0.52;;
57826;SDS011;43656;57.746;11.780;2023-03-01T15:48:29;1.77;;;0.30;;
57826;SDS011;43656;57.746;11.780;2023-03-01T15:50:56;1.35;;;0.30;;
57826;SDS011;43656;57.746;11.780;2023-03-01T15:53:23;2.28;;;0.50;;
57826;SDS011;43656;57.746;11.780;2023-03-01T15:55:49;1.27;;;0.88;;
57826;SDS011;43656;57.746;11.780;2023-03-01T15:58:19;2.03;;;0.40;;
57826;SDS011;43656;57.746;11.780;2023-03-01T16:00:47;1.23;;;0.40;;
57826;SDS011;43656;57.746;11.780;2023-03-01T16:03:16;2.88;;;0.50;;
57826;SDS011;43656;57.746;11.780;2023-03-01T16:05:46;1.40;;;0.30;;
57826;SDS011;43656;57.746;11.780;2023-03-01T16:08:13;1.15;;;0.40;;
57826;SDS011;43656;57.746;11.780;2023-03-01T16:10:39;1.48;;;0.35;;
57826;SDS011;43656;57.746;11.780;2023-03-01T16:13:06;2.17;;;0.40;;
57826;SDS011;43656;57.746;11.780;2023-03-01T16:15:32;3.47;;;0.30;;
57826;SDS011;43656;57.746;11.780;2023-03-01T16:18:03;1.30;;;0.40;;
57826;SDS011;43656;57.746;11.780;2023-03-01T16:20:30;2.45;;;0.50;;
57826;SDS011;43656;57.746;11.780;2023-03-01T16:22:59;1.58;;;0.40;;
57826;SDS011;43656;57.746;11.780;2023-03-01T16:25:26;1.65;;;0.45;;
57826;SDS011;43656;57.746;11.780;2023-03-01T16:27:52;3.78;;;0.55;;
57826;SDS011;43656;57.746;11.780;2023-03-01T16:30:18;2.83;;;0.40;;
57826;SDS011;43656;57.746;11.780;2023-03-01T16:32:46;3.40;;;0.50;;
57826;SDS011;43656;57.746;11.780;2023-03-01T16:35:13;1.33;;;0.43;;
57826;SDS011;43656;57.746;11.780;2023-03-01T16:37:40;1.77;;;0.45;;
57826;SDS011;43656;57.746;11.780;2023-03-01T16:40:07;2.75;;;0.43;;
57826;SDS011;43656;57.746;11.780;2023-03-01T16:42:47;3.58;;;0.70;;
57826;SDS011;43656;57.746;11.780;2023-03-01T16:45:13;3.25;;;0.60;;
57826;SDS011;43656;57.746;11.780;2023-03-01T16:47:39;3.20;;;0.52;;
57826;SDS011;43656;57.746;11.780;2023-03-01T16:50:04;5.57;;;0.65;;
57826;SDS011;43656;57.746;11.780;2023-03-01T16:52:30;2.05;;;0.55;;
57826;SDS011;43656;57.746;11.780;2023-03-01T16:54:58;2.65;;;0.60;;
57826;SDS011;43656;57.746;11.780;2023-03-01T16:57:23;1.90;;;0.43;;
57826;SDS011;43656;57.746;11.780;2023-03-01T16:59:51;3.60;;;0.80;;
57826;SDS011;43656;57.746;11.780;2023-03-01T17:02:18;2.67;;;1.02;;
57826;SDS011;43656;57.746;11.780;2023-03-01T17:04:45;17.02;;;15.32;;
57826;SDS011;43656;57.746;11.780;2023-03-01T17:07:16;7.70;;;5.97;;
57826;SDS011;43656;57.746;11.780;2023-03-01T17:09:41;2.47;;;1.42;;
57826;SDS011;43656;57.746;11.780;2023-03-01T17:12:07;4.15;;;0.90;;
57826;SDS011;43656;57.746;11.780;2023-03-01T17:14:32;2.85;;;0.90;;
57826;SDS011;43656;57.746;11.780;2023-03-01T17:16:58;3.00;;;0.85;;
57826;SDS011;43656;57.746;11.780;2023-03-01T17:19:23;4.75;;;0.80;;
57826;SDS011;43656;57.746;11.780;2023-03-01T17:21:49;3.13;;;0.80;;